Главная страница
METAR-TAF:

METAR-TAF

Аэропорты :

Казвин, Иран

широта: 36-15N, долгота: 050-00E, высота над уровнем моря: 1278 м

Текущие метеонаблюдения

Эта сводка был подготовлена 1 час и 1 минут назад, в 02:00 UTC
Ветер 2 Узел от северо-западный
Температура 1°C
Влажность 100%
Давление 1015 hPa
Видимость: 6000 м
небольшая облачность на высоте 3000 фута, Кучево-дождевые.
Рассеянная облачность на высоте 4000 фута
Сплошная облачность на высоте 9000 фута
дождь

METAR: OIIK 100200Z 31002KT 6000 RA FEW030CB BKN040 OVC090 01/01 Q1015

Время: 07:31 (03:01 UTC)


TAF: отсутствует

Метеонаблюдения и прогнозы для более 4000 аэропортов (сводки METAR и TAF).

Имеющиеся станции представлены на карте желтыми и красными точками.

Чтобы увидеть название станции, наведите на нее мышь.

Затем щелкните, чтобы увидеть метеонаблюдения и метеопрогнозы.

Управление картой: чтобы увеличить масштаб, щелкните зеленые кнопки с черным крестиком; чтобы уменьшить масштаб, щелкните зеленую кнопку с тире; для просмотра соседних карт щелкайте зеленые стрелки.


METAR-TAF: